N24S KEUG-K6S2

Flight info

Callsign N24S
Flight time N/A
Altitude 4000
Route EUG
Aircraft DA40/L-SDGRY/S

Departure

Time 2026-04-29 05:50
Airport Eugene Airport (KEUG)

Arrival

Time N/A
Airport K6S2
Time Latitude Longitude Altitude Speed Heading
2026-04-29 05:45 44.12433 -123.20262 359 ft 0 kts 180°
2026-04-29 05:48 44.12325 -123.20259 359 ft 45 kts 175°
2026-04-29 05:48 44.11842 -123.20239 386 ft 88 kts 175°
2026-04-29 05:48 44.11252 -123.20355 636 ft 88 kts 191°
2026-04-29 05:48 44.10620 -123.20783 555 ft 115 kts 226°
2026-04-29 05:49 44.10283 -123.21824 418 ft 122 kts 270°
2026-04-29 05:49 44.10310 -123.22888 571 ft 114 kts 276°
2026-04-29 05:49 44.10296 -123.23968 702 ft 113 kts 270°
2026-04-29 05:49 44.10317 -123.25039 848 ft 109 kts 276°
2026-04-29 05:50 44.10352 -123.26065 1080 ft 103 kts 275°
2026-04-29 05:50 44.10384 -123.27025 1369 ft 99 kts 275°
2026-04-29 05:50 44.10415 -123.28005 1488 ft 108 kts 277°
2026-04-29 05:50 44.10496 -123.29106 1488 ft 120 kts 279°
2026-04-29 05:51 44.10583 -123.30292 1482 ft 125 kts 278°
2026-04-29 05:51 44.10777 -123.31465 1486 ft 125 kts 296°
2026-04-29 05:51 44.11071 -123.32616 1487 ft 128 kts 285°
2026-04-29 05:51 44.11062 -123.33842 1575 ft 122 kts 264°
2026-04-29 05:52 44.10911 -123.34934 1804 ft 114 kts 261°
2026-04-29 05:52 44.10743 -123.36027 1913 ft 116 kts 261°
2026-04-29 05:52 44.10565 -123.37140 1992 ft 122 kts 261°
2026-04-29 05:52 44.10387 -123.38246 2258 ft 108 kts 260°
2026-04-29 05:53 44.10224 -123.39232 2484 ft 109 kts 261°
2026-04-29 05:53 44.10044 -123.40352 2485 ft 126 kts 261°
2026-04-29 05:53 44.09846 -123.41557 2478 ft 132 kts 262°
2026-04-29 05:53 44.09641 -123.42821 2478 ft 134 kts 260°
2026-04-29 05:54 44.09434 -123.44096 2477 ft 136 kts 260°
2026-04-29 05:54 44.09225 -123.45374 2478 ft 134 kts 260°
2026-04-29 05:54 44.09018 -123.46640 2484 ft 135 kts 260°
2026-04-29 05:54 44.08808 -123.47928 2481 ft 136 kts 260°
2026-04-29 05:55 44.08597 -123.49219 2479 ft 137 kts 260°
2026-04-29 05:55 44.08387 -123.50497 2473 ft 134 kts 260°
2026-04-29 05:55 44.08192 -123.51690 2480 ft 118 kts 261°
2026-04-29 05:55 44.08019 -123.52748 2479 ft 107 kts 261°
2026-04-29 05:56 44.07858 -123.53736 2479 ft 102 kts 261°
2026-04-29 05:56 44.07699 -123.54699 2472 ft 100 kts 261°
2026-04-29 05:56 44.07550 -123.55633 2480 ft 102 kts 262°
2026-04-29 05:56 44.07388 -123.56599 2471 ft 99 kts 261°
2026-04-29 05:57 44.07236 -123.57535 2485 ft 100 kts 259°
2026-04-29 05:57 44.07080 -123.58481 2485 ft 101 kts 261°
2026-04-29 05:57 44.06924 -123.59437 2483 ft 103 kts 261°
2026-04-29 05:57 44.06764 -123.60400 2479 ft 103 kts 260°
2026-04-29 05:58 44.06602 -123.61383 2480 ft 106 kts 261°
2026-04-29 05:58 44.06437 -123.62386 2483 ft 107 kts 261°
2026-04-29 05:58 44.06271 -123.63391 2456 ft 104 kts 262°
2026-04-29 05:58 44.06123 -123.64335 2474 ft 100 kts 260°
2026-04-29 05:59 44.05964 -123.65265 2465 ft 98 kts 261°
2026-04-29 05:59 44.05817 -123.66166 2467 ft 95 kts 261°
2026-04-29 05:59 44.05676 -123.67043 2473 ft 91 kts 262°
2026-04-29 05:59 44.05528 -123.67943 2475 ft 99 kts 261°
2026-04-29 06:00 44.05366 -123.68885 2469 ft 100 kts 261°
2026-04-29 06:00 44.05211 -123.69820 2478 ft 98 kts 260°
2026-04-29 06:00 44.05054 -123.70759 2482 ft 101 kts 259°
2026-04-29 06:00 44.04892 -123.71707 2472 ft 99 kts 259°
2026-04-29 06:01 44.04740 -123.72631 2482 ft 99 kts 260°
2026-04-29 06:01 44.04587 -123.73575 2480 ft 101 kts 260°
2026-04-29 06:01 44.04430 -123.74516 2478 ft 102 kts 260°
2026-04-29 06:01 44.04271 -123.75481 2484 ft 103 kts 259°
2026-04-29 06:02 44.04108 -123.76452 2475 ft 102 kts 259°
2026-04-29 06:02 44.03940 -123.77393 2464 ft 98 kts 260°
2026-04-29 06:02 44.03797 -123.78302 2483 ft 98 kts 260°
2026-04-29 06:02 44.03642 -123.79234 2478 ft 99 kts 259°
2026-04-29 06:03 44.03488 -123.80164 2476 ft 99 kts 260°
2026-04-29 06:03 44.03334 -123.81083 2467 ft 95 kts 261°
2026-04-29 06:03 44.03187 -123.81974 2485 ft 95 kts 260°
2026-04-29 06:03 44.03035 -123.82889 2479 ft 97 kts 259°
2026-04-29 06:04 44.02879 -123.83809 2484 ft 98 kts 260°
2026-04-29 06:04 44.02725 -123.84738 2489 ft 100 kts 260°
2026-04-29 06:04 44.02570 -123.85674 2483 ft 99 kts 260°
2026-04-29 06:04 44.02419 -123.86600 2482 ft 98 kts 260°
2026-04-29 06:05 44.02263 -123.87515 2469 ft 96 kts 259°
2026-04-29 06:05 44.02127 -123.88371 2488 ft 92 kts 261°
2026-04-29 06:05 44.01978 -123.89261 2495 ft 96 kts 259°
2026-04-29 06:05 44.01820 -123.90182 2490 ft 99 kts 259°
2026-04-29 06:06 44.01661 -123.91118 2481 ft 99 kts 260°
2026-04-29 06:06 44.01505 -123.92047 2483 ft 98 kts 260°
2026-04-29 06:06 44.01350 -123.92969 2484 ft 98 kts 260°
2026-04-29 06:06 44.01196 -123.93888 2500 ft 93 kts 259°
2026-04-29 06:07 44.01060 -123.94676 2466 ft 77 kts 261°
2026-04-29 06:07 44.00957 -123.95337 2467 ft 65 kts 263°
2026-04-29 06:07 44.00852 -123.95994 2501 ft 76 kts 260°
2026-04-29 06:07 44.00721 -123.96714 2492 ft 77 kts 259°
2026-04-29 06:08 44.00602 -123.97423 2495 ft 77 kts 261°
2026-04-29 06:08 44.00476 -123.98168 2503 ft 81 kts 259°
2026-04-29 06:08 44.00342 -123.98939 2498 ft 82 kts 260°
2026-04-29 06:08 44.00227 -123.99707 2500 ft 82 kts 260°
2026-04-29 06:09 44.00094 -124.00476 2500 ft 82 kts 259°
2026-04-29 06:09 43.99959 -124.01245 2496 ft 82 kts 259°
2026-04-29 06:09 43.99828 -124.02009 2494 ft 81 kts 259°
2026-04-29 06:09 43.99695 -124.02779 2493 ft 82 kts 259°
2026-04-29 06:10 43.99569 -124.03544 2491 ft 81 kts 261°
2026-04-29 06:10 43.99443 -124.04294 2492 ft 79 kts 260°
2026-04-29 06:10 43.99320 -124.05041 2493 ft 79 kts 259°
2026-04-29 06:10 43.99214 -124.05792 811 ft 150 kts 279°
2026-04-29 06:11 43.99333 -124.06805 1117 ft 86 kts 286°
2026-04-29 06:11 43.99404 -124.07696 912 ft 92 kts 281°
2026-04-29 06:11 43.99465 -124.08562 871 ft 91 kts 279°
2026-04-29 06:11 43.99478 -124.09488 679 ft 100 kts 279°
2026-04-29 06:12 43.99412 -124.10248 564 ft 70 kts 257°
2026-04-29 06:12 43.99250 -124.10851 278 ft 77 kts 290°
2026-04-29 06:12 43.98771 -124.11223 86 ft 81 kts 195°
2026-04-29 06:12 43.98281 -124.11139 41 ft 71 kts 168°
2026-04-29 06:13 43.97690 -124.11048 195 ft 82 kts 211°
2026-04-29 06:13 43.97500 -124.11680 300 ft 76 kts 281°
2026-04-29 06:13 43.97381 -124.12519 365 ft 88 kts 277°
2026-04-29 06:13 43.97407 -124.13352 533 ft 91 kts 269°
2026-04-29 06:14 43.97264 -124.14219 639 ft 93 kts 267°
2026-04-29 06:14 43.97137 -124.15103 704 ft 95 kts 268°
2026-04-29 06:14 43.97005 -124.15991 890 ft 89 kts 268°
2026-04-29 06:14 43.96863 -124.16827 1065 ft 91 kts 267°
2026-04-29 06:15 43.96717 -124.17695 1301 ft 92 kts 268°
2026-04-29 06:15 43.96581 -124.18547 1578 ft 90 kts 268°
2026-04-29 06:15 43.96449 -124.19398 1830 ft 90 kts 268°
2026-04-29 06:15 43.96315 -124.20244 2109 ft 90 kts 268°
2026-04-29 06:16 43.96178 -124.21097 2374 ft 91 kts 268°
2026-04-29 06:16 43.96042 -124.21948 2646 ft 91 kts 268°
2026-04-29 06:16 43.95916 -124.22811 2906 ft 91 kts 268°
2026-04-29 06:16 43.95796 -124.23685 3177 ft 92 kts 267°
2026-04-29 06:17 43.95698 -124.24565 3452 ft 92 kts 268°
2026-04-29 06:17 43.95611 -124.25447 3732 ft 93 kts 268°
2026-04-29 06:17 43.95527 -124.26328 3987 ft 92 kts 268°
2026-04-29 06:17 43.95451 -124.27206 4224 ft 93 kts 268°
2026-04-29 06:18 43.95378 -124.28087 4476 ft 91 kts 268°
2026-04-29 06:18 43.95312 -124.28973 4712 ft 93 kts 268°
2026-04-29 06:18 43.95251 -124.29862 4954 ft 93 kts 268°
2026-04-29 06:18 43.95196 -124.30749 5180 ft 92 kts 269°
2026-04-29 06:19 43.95137 -124.31633 5406 ft 92 kts 268°
2026-04-29 06:19 43.95068 -124.32511 5635 ft 91 kts 269°
2026-04-29 06:19 43.95021 -124.33093 5775 ft 92 kts 270°
2026-04-29 06:19 43.94941 -124.33975 5986 ft 92 kts 268°
2026-04-29 06:20 43.94867 -124.34856 6208 ft 92 kts 269°
2026-04-29 06:20 43.94754 -124.36013 6499 ft 90 kts 269°
2026-04-29 06:20 43.94691 -124.36596 6640 ft 91 kts 268°
2026-04-29 06:20 43.94597 -124.37467 6843 ft 91 kts 268°
2026-04-29 06:21 43.94509 -124.38339 7034 ft 91 kts 268°
2026-04-29 06:21 43.94417 -124.39210 7224 ft 91 kts 268°
2026-04-29 06:21 43.94320 -124.40073 7416 ft 92 kts 268°
2026-04-29 06:21 43.94222 -124.40948 7604 ft 92 kts 269°
2026-04-29 06:22 43.94111 -124.41820 7803 ft 92 kts 269°
2026-04-29 06:22 43.93989 -124.42690 7993 ft 92 kts 269°
2026-04-29 06:22 43.93845 -124.43566 8174 ft 93 kts 268°
2026-04-29 06:22 43.93696 -124.44445 8357 ft 93 kts 268°
2026-04-29 06:23 43.93544 -124.45326 8537 ft 94 kts 269°
2026-04-29 06:23 43.93387 -124.46207 8716 ft 94 kts 268°
2026-04-29 06:23 43.93232 -124.47091 8893 ft 94 kts 268°
2026-04-29 06:23 43.93080 -124.47961 9065 ft 94 kts 268°
2026-04-29 06:24 43.92926 -124.48811 9160 ft 82 kts 269°
2026-04-29 06:24 43.92822 -124.49514 8977 ft 75 kts 284°
2026-04-29 06:24 43.92897 -124.50265 8919 ft 78 kts 296°
2026-04-29 06:24 43.92946 -124.51047 9072 ft 87 kts 277°
2026-04-29 06:25 43.92891 -124.51888 9258 ft 87 kts 277°
2026-04-29 06:25 43.92832 -124.52724 9444 ft 87 kts 276°
2026-04-29 06:25 43.92774 -124.53566 9633 ft 88 kts 277°
2026-04-29 06:25 43.92717 -124.54412 9816 ft 88 kts 277°
2026-04-29 06:26 43.92659 -124.55260 10008 ft 88 kts 276°
2026-04-29 06:26 43.92602 -124.56108 10183 ft 88 kts 277°
2026-04-29 06:26 43.92546 -124.56948 10342 ft 89 kts 277°
2026-04-29 06:26 43.92491 -124.57801 10495 ft 89 kts 277°
2026-04-29 06:27 43.92439 -124.58662 10647 ft 90 kts 276°
2026-04-29 06:27 43.92392 -124.59526 10801 ft 90 kts 277°
2026-04-29 06:27 43.92343 -124.60390 10951 ft 90 kts 277°
2026-04-29 06:27 43.92289 -124.61258 11101 ft 90 kts 277°
2026-04-29 06:28 43.92232 -124.62126 11256 ft 91 kts 277°
2026-04-29 06:28 43.92172 -124.62988 11402 ft 91 kts 277°
2026-04-29 06:28 43.92111 -124.63862 11550 ft 91 kts 277°
2026-04-29 06:28 43.92048 -124.64741 11694 ft 92 kts 277°
2026-04-29 06:29 43.91982 -124.65620 11833 ft 92 kts 277°
2026-04-29 06:29 43.91915 -124.66506 11971 ft 92 kts 277°
2026-04-29 06:29 43.91846 -124.67392 12110 ft 93 kts 277°
2026-04-29 06:29 43.91775 -124.68280 12251 ft 93 kts 277°
2026-04-29 06:30 43.91700 -124.69167 12382 ft 93 kts 277°
2026-04-29 06:30 43.91539 -124.70959 12647 ft 94 kts 277°
2026-04-29 06:30 43.91457 -124.71855 12773 ft 94 kts 277°
2026-04-29 06:31 43.91373 -124.72754 12906 ft 94 kts 277°
2026-04-29 06:31 43.91287 -124.73656 13035 ft 94 kts 277°
2026-04-29 06:31 43.91200 -124.74547 13160 ft 95 kts 277°
2026-04-29 06:31 43.91108 -124.75454 13287 ft 95 kts 277°
2026-04-29 06:32 43.91014 -124.76362 13415 ft 95 kts 277°
2026-04-29 06:32 43.90918 -124.77271 13536 ft 95 kts 277°
2026-04-29 06:32 43.90821 -124.78185 13648 ft 96 kts 277°
2026-04-29 06:32 43.90721 -124.79104 13772 ft 96 kts 277°
2026-04-29 06:33 43.90619 -124.80021 13895 ft 96 kts 277°
2026-04-29 06:33 43.90514 -124.80940 14011 ft 96 kts 277°
2026-04-29 06:33 43.90408 -124.81860 14120 ft 96 kts 277°
2026-04-29 06:33 43.90301 -124.82781 14219 ft 97 kts 277°
2026-04-29 06:34 43.90196 -124.83689 14311 ft 97 kts 277°
2026-04-29 06:34 43.90090 -124.84613 14405 ft 97 kts 277°
2026-04-29 06:34 43.89984 -124.85537 14502 ft 97 kts 277°
2026-04-29 06:34 43.89878 -124.86464 14598 ft 97 kts 277°
2026-04-29 06:35 43.89772 -124.87395 14698 ft 97 kts 276°
2026-04-29 06:35 43.89666 -124.88323 14795 ft 97 kts 277°
2026-04-29 06:35 43.89561 -124.89249 14889 ft 97 kts 277°
2026-04-29 06:35 43.89456 -124.90177 14985 ft 97 kts 277°
2026-04-29 06:36 43.89350 -124.91105 15072 ft 97 kts 277°
2026-04-29 06:36 43.89246 -124.92022 15159 ft 98 kts 277°
2026-04-29 06:36 43.89139 -124.92966 15249 ft 98 kts 276°
2026-04-29 06:36 43.89035 -124.93886 15336 ft 98 kts 276°
2026-04-29 06:37 43.88929 -124.94820 15427 ft 98 kts 276°
2026-04-29 06:37 43.88823 -124.95752 15515 ft 98 kts 276°
2026-04-29 06:37 43.88717 -124.96685 15600 ft 98 kts 276°
2026-04-29 06:37 43.88610 -124.97618 15683 ft 98 kts 276°
2026-04-29 06:38 43.88504 -124.98555 15764 ft 98 kts 276°
2026-04-29 06:38 43.88399 -124.99494 15846 ft 98 kts 277°
2026-04-29 06:38 43.88292 -125.00434 15927 ft 98 kts 276°
2026-04-29 06:38 43.88185 -125.01374 16008 ft 99 kts 276°
2026-04-29 06:39 43.88079 -125.02313 16091 ft 99 kts 277°
2026-04-29 06:39 43.87973 -125.03239 16171 ft 99 kts 276°
2026-04-29 06:39 43.87866 -125.04178 16252 ft 99 kts 276°
2026-04-29 06:39 43.87758 -125.05121 16328 ft 99 kts 276°
2026-04-29 06:40 43.87651 -125.06061 16398 ft 99 kts 276°
2026-04-29 06:40 43.87543 -125.07003 16474 ft 99 kts 276°
2026-04-29 06:40 43.87435 -125.07949 16547 ft 99 kts 276°
2026-04-29 06:40 43.87328 -125.08893 16620 ft 99 kts 276°
2026-04-29 06:41 43.87222 -125.09826 16693 ft 99 kts 276°
2026-04-29 06:41 43.87115 -125.10771 16765 ft 99 kts 276°
2026-04-29 06:41 43.87008 -125.11717 16837 ft 99 kts 276°
2026-04-29 06:41 43.86900 -125.12664 16908 ft 100 kts 276°
2026-04-29 06:42 43.86792 -125.13612 16978 ft 100 kts 276°
2026-04-29 06:42 43.86685 -125.14560 17049 ft 100 kts 276°
2026-04-29 06:42 43.86577 -125.15509 17117 ft 100 kts 276°
2026-04-29 06:42 43.86468 -125.16460 17185 ft 100 kts 276°
2026-04-29 06:43 43.86361 -125.17410 17250 ft 100 kts 276°
2026-04-29 06:43 43.86253 -125.18362 17316 ft 100 kts 276°
2026-04-29 06:43 43.86146 -125.19314 17382 ft 100 kts 276°
2026-04-29 06:43 43.86039 -125.20268 17439 ft 100 kts 276°
2026-04-29 06:44 43.85936 -125.21229 17489 ft 101 kts 276°
2026-04-29 06:44 43.85835 -125.22176 17550 ft 101 kts 276°
2026-04-29 06:44 43.85733 -125.23137 17612 ft 101 kts 276°
2026-04-29 06:44 43.85631 -125.24098 17675 ft 101 kts 276°
2026-04-29 06:45 43.85529 -125.25060 17738 ft 101 kts 276°
2026-04-29 06:45 43.85428 -125.26023 17800 ft 101 kts 276°
2026-04-29 06:45 43.85326 -125.26985 17860 ft 101 kts 276°
2026-04-29 06:45 43.85225 -125.27949 17917 ft 101 kts 276°
2026-04-29 06:46 43.85123 -125.28914 17975 ft 101 kts 276°
2026-04-29 06:46 43.85021 -125.29877 18033 ft 101 kts 276°
2026-04-29 06:46 43.84918 -125.30840 18088 ft 101 kts 276°
2026-04-29 06:46 43.84816 -125.31804 18143 ft 101 kts 276°
2026-04-29 06:47 43.84715 -125.32755 18186 ft 101 kts 276°
2026-04-29 06:47 43.84613 -125.33719 18246 ft 101 kts 276°
2026-04-29 06:47 43.84510 -125.34685 18297 ft 101 kts 276°
2026-04-29 06:47 43.84407 -125.35653 18348 ft 101 kts 276°
2026-04-29 06:48 43.84304 -125.36619 18401 ft 102 kts 276°
2026-04-29 06:48 43.84201 -125.37587 18453 ft 102 kts 276°
2026-04-29 06:48 43.84097 -125.38558 18497 ft 102 kts 276°
2026-04-29 06:48 43.83994 -125.39526 18548 ft 102 kts 276°
2026-04-29 06:49 43.83890 -125.40501 18593 ft 102 kts 276°
2026-04-29 06:49 43.83788 -125.41456 18639 ft 102 kts 276°
2026-04-29 06:49 43.83684 -125.42426 18679 ft 102 kts 276°
2026-04-29 06:49 43.83581 -125.43395 18718 ft 102 kts 276°
2026-04-29 06:50 43.83476 -125.44365 18757 ft 102 kts 276°
2026-04-29 06:50 43.83372 -125.45332 18798 ft 102 kts 276°
2026-04-29 06:50 43.83268 -125.46300 18835 ft 102 kts 276°
2026-04-29 06:50 43.83163 -125.47270 18873 ft 102 kts 276°
2026-04-29 06:51 43.83057 -125.48239 18908 ft 102 kts 276°
2026-04-29 06:51 43.82950 -125.49212 18945 ft 102 kts 276°
2026-04-29 06:51 43.82842 -125.50183 18982 ft 102 kts 276°
2026-04-29 06:51 43.82733 -125.51153 19022 ft 102 kts 276°
2026-04-29 06:52 43.82626 -125.52122 19059 ft 102 kts 276°
2026-04-29 06:52 43.82519 -125.53083 19095 ft 102 kts 276°
2026-04-29 06:52 43.82411 -125.54054 19132 ft 102 kts 276°
2026-04-29 06:52 43.82303 -125.55025 19169 ft 102 kts 276°
2026-04-29 06:53 43.82194 -125.55995 19205 ft 102 kts 276°
2026-04-29 06:53 43.82084 -125.56963 19239 ft 102 kts 276°
2026-04-29 06:53 43.81972 -125.57935 19271 ft 102 kts 276°
2026-04-29 06:53 43.81860 -125.58905 19304 ft 102 kts 276°
2026-04-29 06:54 43.81748 -125.59878 19334 ft 102 kts 276°
2026-04-29 06:54 43.81640 -125.60854 19342 ft 103 kts 276°
2026-04-29 06:54 43.81535 -125.61837 19374 ft 103 kts 276°
2026-04-29 06:54 43.81430 -125.62820 19408 ft 103 kts 276°
2026-04-29 06:55 43.81325 -125.63802 19436 ft 103 kts 276°
2026-04-29 06:55 43.81219 -125.64785 19467 ft 103 kts 276°
2026-04-29 06:55 43.81112 -125.65770 19499 ft 103 kts 276°
2026-04-29 06:55 43.81006 -125.66743 19528 ft 103 kts 276°
2026-04-29 06:56 43.80897 -125.67740 19560 ft 103 kts 276°
2026-04-29 06:56 43.80791 -125.68709 19591 ft 103 kts 276°
2026-04-29 06:56 43.80684 -125.69694 19617 ft 103 kts 276°
2026-04-29 06:56 43.80576 -125.70680 19644 ft 103 kts 276°
2026-04-29 06:57 43.80468 -125.71665 19670 ft 103 kts 276°
2026-04-29 06:57 43.80361 -125.72648 19696 ft 103 kts 276°
2026-04-29 06:57 43.80253 -125.73632 19720 ft 103 kts 276°
2026-04-29 06:57 43.80146 -125.74618 19748 ft 103 kts 276°
2026-04-29 06:58 43.80038 -125.75602 19777 ft 103 kts 276°
2026-04-29 06:58 43.79930 -125.76587 19802 ft 103 kts 276°
2026-04-29 06:58 43.79822 -125.77571 19826 ft 104 kts 276°
2026-04-29 06:58 43.79714 -125.78558 19851 ft 104 kts 276°
2026-04-29 06:59 43.79605 -125.79545 19876 ft 104 kts 276°
2026-04-29 06:59 43.79496 -125.80529 19899 ft 104 kts 276°
2026-04-29 06:59 43.79386 -125.81517 19922 ft 104 kts 276°
2026-04-29 06:59 43.79278 -125.82491 19945 ft 104 kts 276°
2026-04-29 07:00 43.79168 -125.83475 19975 ft 103 kts 276°
2026-04-29 07:00 43.79057 -125.84456 20002 ft 103 kts 276°
2026-04-29 07:00 43.78946 -125.85439 20020 ft 103 kts 276°
2026-04-29 07:00 43.78834 -125.86423 20043 ft 103 kts 276°
2026-04-29 07:01 43.78722 -125.87407 20065 ft 104 kts 276°
2026-04-29 07:01 43.78610 -125.88396 20090 ft 104 kts 276°
2026-04-29 07:01 43.78499 -125.89382 20112 ft 104 kts 276°
2026-04-29 07:01 43.78389 -125.90357 20133 ft 104 kts 276°
2026-04-29 07:02 43.78277 -125.91344 20154 ft 104 kts 276°
2026-04-29 07:02 43.78165 -125.92332 20171 ft 104 kts 276°
2026-04-29 07:02 43.78054 -125.93320 20193 ft 104 kts 276°
2026-04-29 07:02 43.77942 -125.94309 20212 ft 104 kts 276°
2026-04-29 07:03 43.77831 -125.95296 20232 ft 104 kts 276°
2026-04-29 07:03 43.77719 -125.96284 20253 ft 104 kts 276°
2026-04-29 07:03 43.77607 -125.97270 20272 ft 104 kts 276°
2026-04-29 07:03 43.77496 -125.98243 20292 ft 104 kts 276°
2026-04-29 07:04 43.77383 -125.99230 20296 ft 104 kts 276°
2026-04-29 07:04 43.77273 -126.00224 20309 ft 105 kts 276°
2026-04-29 07:04 43.77163 -126.01219 20327 ft 105 kts 276°
2026-04-29 07:04 43.77053 -126.02214 20345 ft 105 kts 276°
2026-04-29 07:05 43.76944 -126.03209 20359 ft 105 kts 276°
2026-04-29 07:05 43.76834 -126.04205 20377 ft 105 kts 276°
2026-04-29 07:05 43.76724 -126.05199 20396 ft 105 kts 276°
2026-04-29 07:05 43.76614 -126.06198 20413 ft 105 kts 276°
2026-04-29 07:06 43.76504 -126.07190 20433 ft 105 kts 276°
2026-04-29 07:06 43.76393 -126.08185 20449 ft 104 kts 276°
2026-04-29 07:06 43.76282 -126.09179 20468 ft 105 kts 276°
2026-04-29 07:06 43.76172 -126.10175 20484 ft 105 kts 276°
2026-04-29 07:07 43.76060 -126.11173 20498 ft 105 kts 276°
2026-04-29 07:07 43.75950 -126.12154 20512 ft 105 kts 276°
2026-04-29 07:07 43.75839 -126.13150 20525 ft 105 kts 276°
2026-04-29 07:07 43.75728 -126.14144 20540 ft 105 kts 276°
2026-04-29 07:08 43.75616 -126.15140 20555 ft 105 kts 276°
2026-04-29 07:08 43.75503 -126.16137 20570 ft 105 kts 276°
2026-04-29 07:08 43.75429 -126.16799 20581 ft 105 kts 276°
2026-04-29 07:08 43.75318 -126.17796 20597 ft 105 kts 276°
2026-04-29 07:09 43.75206 -126.18792 20614 ft 105 kts 276°
2026-04-29 07:09 43.75094 -126.19789 20628 ft 105 kts 276°
2026-04-29 07:09 43.74983 -126.20785 20648 ft 105 kts 276°
2026-04-29 07:09 43.74871 -126.21782 20656 ft 105 kts 276°
2026-04-29 07:10 43.74758 -126.22778 20666 ft 105 kts 276°
2026-04-29 07:10 43.74645 -126.23760 20679 ft 105 kts 276°
2026-04-29 07:10 43.74531 -126.24755 20692 ft 105 kts 276°
2026-04-29 07:10 43.74417 -126.25752 20707 ft 105 kts 276°
2026-04-29 07:11 43.74303 -126.26748 20724 ft 105 kts 276°
2026-04-29 07:11 43.74190 -126.27743 20740 ft 105 kts 276°
2026-04-29 07:11 43.74076 -126.28738 20751 ft 105 kts 276°
2026-04-29 07:11 43.73962 -126.29733 20766 ft 105 kts 276°
2026-04-29 07:12 43.73848 -126.30727 20777 ft 105 kts 276°
2026-04-29 07:12 43.73733 -126.31723 20790 ft 105 kts 276°
2026-04-29 07:12 43.73619 -126.32720 20804 ft 105 kts 276°
2026-04-29 07:12 43.73503 -126.33719 20817 ft 105 kts 276°
2026-04-29 07:13 43.73389 -126.34714 20826 ft 105 kts 276°
2026-04-29 07:13 43.73274 -126.35712 20836 ft 105 kts 276°
2026-04-29 07:13 43.73160 -126.36710 20849 ft 105 kts 276°
2026-04-29 07:13 43.73046 -126.37706 20862 ft 105 kts 276°
2026-04-29 07:14 43.72934 -126.38704 20849 ft 106 kts 276°
2026-04-29 07:14 43.72825 -126.39698 20861 ft 106 kts 276°
2026-04-29 07:14 43.72714 -126.40704 20873 ft 106 kts 276°
2026-04-29 07:14 43.72603 -126.41707 20886 ft 106 kts 276°
2026-04-29 07:15 43.72491 -126.42713 20899 ft 106 kts 276°
2026-04-29 07:15 43.72380 -126.43721 20910 ft 106 kts 276°
2026-04-29 07:15 43.72270 -126.44727 20924 ft 106 kts 276°
2026-04-29 07:15 43.72159 -126.45735 20935 ft 106 kts 276°
2026-04-29 07:16 43.72048 -126.46741 20944 ft 106 kts 276°
2026-04-29 07:16 43.71938 -126.47749 20954 ft 106 kts 276°
2026-04-29 07:16 43.71829 -126.48743 20963 ft 106 kts 276°
2026-04-29 07:16 43.71718 -126.49751 20973 ft 106 kts 276°
2026-04-29 07:17 43.71607 -126.50758 20985 ft 106 kts 276°
2026-04-29 07:17 43.71496 -126.51764 20996 ft 106 kts 276°
2026-04-29 07:17 43.71384 -126.52771 21006 ft 106 kts 276°
2026-04-29 07:17 43.71271 -126.53777 21017 ft 106 kts 276°
2026-04-29 07:18 43.71158 -126.54786 21019 ft 107 kts 276°
2026-04-29 07:18 43.71046 -126.55802 21020 ft 107 kts 276°
2026-04-29 07:18 43.70934 -126.56822 21020 ft 108 kts 276°
2026-04-29 07:18 43.70822 -126.57847 21020 ft 108 kts 276°
2026-04-29 07:19 43.70711 -126.58872 21019 ft 108 kts 276°
2026-04-29 07:19 43.70601 -126.59903 21019 ft 108 kts 276°
2026-04-29 07:19 43.70492 -126.60934 21019 ft 109 kts 276°
2026-04-29 07:19 43.70384 -126.61953 21022 ft 109 kts 276°
2026-04-29 07:20 43.70275 -126.62990 21022 ft 109 kts 276°
2026-04-29 07:20 43.70165 -126.64029 21022 ft 109 kts 276°
2026-04-29 07:20 43.70057 -126.65064 21021 ft 109 kts 276°
2026-04-29 07:20 43.69947 -126.66099 21022 ft 109 kts 276°
2026-04-29 07:21 43.69838 -126.67137 21020 ft 109 kts 276°
2026-04-29 07:21 43.69728 -126.68173 21019 ft 109 kts 276°
2026-04-29 07:21 43.69618 -126.69211 21020 ft 109 kts 276°
2026-04-29 07:21 43.69509 -126.70237 21020 ft 109 kts 276°
2026-04-29 07:22 43.69399 -126.71276 21024 ft 109 kts 276°
2026-04-29 07:22 43.69290 -126.72316 21024 ft 109 kts 276°
2026-04-29 07:22 43.69181 -126.73360 21024 ft 109 kts 276°
2026-04-29 07:22 43.69071 -126.74403 21024 ft 110 kts 276°
2026-04-29 07:23 43.68961 -126.75446 21024 ft 109 kts 276°
2026-04-29 07:23 43.68852 -126.76489 21024 ft 109 kts 276°
2026-04-29 07:23 43.68745 -126.77527 21022 ft 108 kts 276°
2026-04-29 07:23 43.68648 -126.78540 21023 ft 108 kts 276°
2026-04-29 07:24 43.68550 -126.79575 21024 ft 108 kts 276°
2026-04-29 07:24 43.68451 -126.80613 21024 ft 109 kts 276°
2026-04-29 07:24 43.68353 -126.81657 21024 ft 109 kts 276°
2026-04-29 07:24 43.68256 -126.82683 21024 ft 109 kts 276°
2026-04-29 07:25 43.68158 -126.83728 21026 ft 109 kts 276°
2026-04-29 07:25 43.68061 -126.84770 21026 ft 110 kts 276°
2026-04-29 07:25 43.67963 -126.85817 21026 ft 110 kts 276°
2026-04-29 07:25 43.67866 -126.86861 21026 ft 110 kts 276°
2026-04-29 07:26 43.67769 -126.87905 21024 ft 110 kts 276°
2026-04-29 07:26 43.67671 -126.88951 21024 ft 110 kts 276°
2026-04-29 07:26 43.67573 -126.90000 21024 ft 110 kts 276°
2026-04-29 07:26 43.67476 -126.91034 21024 ft 110 kts 276°
2026-04-29 07:27 43.67376 -126.92094 21024 ft 110 kts 276°
2026-04-29 07:27 43.67278 -126.93138 21027 ft 110 kts 276°
2026-04-29 07:27 43.67180 -126.94173 21027 ft 110 kts 276°
2026-04-29 07:27 43.67082 -126.95220 21027 ft 110 kts 276°
2026-04-29 07:28 43.66985 -126.96266 21027 ft 110 kts 276°
2026-04-29 07:28 43.66888 -126.97314 21027 ft 110 kts 276°
2026-04-29 07:28 43.66791 -126.98362 21027 ft 110 kts 276°
2026-04-29 07:28 43.66693 -126.99414 21027 ft 110 kts 276°
2026-04-29 07:29 43.66596 -127.00461 21027 ft 110 kts 276°
2026-04-29 07:29 43.66497 -127.01511 21027 ft 110 kts 276°
2026-04-29 07:29 43.66400 -127.02559 21027 ft 110 kts 276°
2026-04-29 07:29 43.66302 -127.03607 21026 ft 110 kts 276°
2026-04-29 07:30 43.66205 -127.04642 21027 ft 110 kts 276°
2026-04-29 07:30 43.66106 -127.05691 21028 ft 110 kts 276°
2026-04-29 07:30 43.66007 -127.06740 21028 ft 110 kts 276°
2026-04-29 07:31 43.65808 -127.08845 21026 ft 110 kts 276°
2026-04-29 07:31 43.65710 -127.09892 21026 ft 110 kts 276°
2026-04-29 07:31 43.65611 -127.10941 21026 ft 110 kts 276°
2026-04-29 07:31 43.65513 -127.11978 21025 ft 110 kts 276°
2026-04-29 07:32 43.65414 -127.13026 21026 ft 110 kts 276°
2026-04-29 07:32 43.65315 -127.14074 21026 ft 110 kts 276°
2026-04-29 07:32 43.65215 -127.15127 21026 ft 110 kts 276°
2026-04-29 07:32 43.65116 -127.16177 21026 ft 110 kts 276°
2026-04-29 07:33 43.65017 -127.17228 21017 ft 110 kts 276°
2026-04-29 07:33 43.64926 -127.18273 21026 ft 109 kts 276°
2026-04-29 07:33 43.64838 -127.19303 21026 ft 110 kts 276°
2026-04-29 07:33 43.64749 -127.20351 21026 ft 110 kts 276°
2026-04-29 07:34 43.64661 -127.21396 21024 ft 110 kts 276°
2026-04-29 07:34 43.64572 -127.22445 21024 ft 110 kts 276°
2026-04-29 07:34 43.64483 -127.23495 21024 ft 110 kts 276°
2026-04-29 07:34 43.64394 -127.24543 21027 ft 110 kts 276°
2026-04-29 07:35 43.64306 -127.25579 21029 ft 110 kts 276°
2026-04-29 07:35 43.64216 -127.26629 21030 ft 110 kts 276°
2026-04-29 07:35 43.64126 -127.27678 21030 ft 110 kts 276°
2026-04-29 07:35 43.64037 -127.28730 21029 ft 110 kts 276°
2026-04-29 07:36 43.63949 -127.29780 21029 ft 110 kts 276°
2026-04-29 07:36 43.63860 -127.30829 21029 ft 110 kts 276°
2026-04-29 07:36 43.63772 -127.31881 21029 ft 110 kts 276°
2026-04-29 07:36 43.63683 -127.32930 21029 ft 110 kts 276°
2026-04-29 07:37 43.63595 -127.33980 21031 ft 110 kts 276°
2026-04-29 07:37 43.63507 -127.35020 21031 ft 110 kts 276°
2026-04-29 07:37 43.63418 -127.36069 21031 ft 110 kts 276°
2026-04-29 07:37 43.63330 -127.37119 21031 ft 110 kts 276°
2026-04-29 07:38 43.63241 -127.38169 21031 ft 110 kts 276°
2026-04-29 07:38 43.63153 -127.39219 21030 ft 110 kts 276°
2026-04-29 07:38 43.63065 -127.40268 21030 ft 109 kts 276°
2026-04-29 07:38 43.62982 -127.41309 21030 ft 109 kts 276°
2026-04-29 07:39 43.62899 -127.42354 21033 ft 109 kts 276°
2026-04-29 07:39 43.62816 -127.43397 21033 ft 109 kts 276°
2026-04-29 07:39 43.62735 -127.44427 21033 ft 109 kts 276°
2026-04-29 07:39 43.62653 -127.45470 21033 ft 109 kts 276°
2026-04-29 07:40 43.62571 -127.46515 21033 ft 109 kts 276°
2026-04-29 07:40 43.62489 -127.47561 21033 ft 109 kts 276°
2026-04-29 07:40 43.62407 -127.48604 21033 ft 109 kts 276°
2026-04-29 07:40 43.62324 -127.49647 21032 ft 109 kts 276°
2026-04-29 07:41 43.62241 -127.50689 21031 ft 109 kts 276°
2026-04-29 07:41 43.62158 -127.51731 21030 ft 109 kts 276°
2026-04-29 07:41 43.62076 -127.52762 21030 ft 109 kts 276°
2026-04-29 07:41 43.61994 -127.53803 21030 ft 109 kts 276°
2026-04-29 07:42 43.61912 -127.54844 21031 ft 109 kts 276°
2026-04-29 07:42 43.61831 -127.55887 21033 ft 109 kts 276°
2026-04-29 07:42 43.61749 -127.56929 21033 ft 109 kts 276°
2026-04-29 07:42 43.61668 -127.57972 21027 ft 108 kts 276°
2026-04-29 07:43 43.61593 -127.59001 21037 ft 108 kts 276°
2026-04-29 07:43 43.61518 -127.60031 21037 ft 108 kts 276°
2026-04-29 07:43 43.61443 -127.61065 21037 ft 108 kts 276°
2026-04-29 07:43 43.61368 -127.62104 21037 ft 109 kts 276°
2026-04-29 07:44 43.61293 -127.63142 21037 ft 109 kts 276°
2026-04-29 07:44 43.61220 -127.64171 21037 ft 109 kts 276°
2026-04-29 07:44 43.61147 -127.65209 21037 ft 109 kts 276°
2026-04-29 07:44 43.61074 -127.66249 21037 ft 109 kts 276°
2026-04-29 07:45 43.61001 -127.67288 21037 ft 109 kts 276°
2026-04-29 07:45 43.60928 -127.68330 21037 ft 109 kts 276°
2026-04-29 07:45 43.60855 -127.69372 21037 ft 109 kts 276°
2026-04-29 07:45 43.60781 -127.70412 21037 ft 109 kts 276°
2026-04-29 07:46 43.60707 -127.71452 21035 ft 109 kts 276°
2026-04-29 07:46 43.60634 -127.72480 21035 ft 109 kts 276°
2026-04-29 07:46 43.60561 -127.73519 21035 ft 109 kts 276°
2026-04-29 07:46 43.60487 -127.74559 21035 ft 109 kts 276°
2026-04-29 07:47 43.60414 -127.75597 21035 ft 109 kts 276°
2026-04-29 07:47 43.60341 -127.76636 21035 ft 109 kts 276°
2026-04-29 07:47 43.60268 -127.77674 21035 ft 109 kts 276°
2026-04-29 07:47 43.60195 -127.78713 21034 ft 108 kts 276°
2026-04-29 07:48 43.60122 -127.79750 21034 ft 108 kts 276°
2026-04-29 07:48 43.60048 -127.80788 21034 ft 109 kts 276°
2026-04-29 07:48 43.59976 -127.81826 21034 ft 109 kts 276°
2026-04-29 07:48 43.59904 -127.82854 21034 ft 109 kts 276°
2026-04-29 07:49 43.59831 -127.83891 21033 ft 109 kts 276°
2026-04-29 07:49 43.59757 -127.84933 21035 ft 109 kts 276°
2026-04-29 07:49 43.59684 -127.85968 21035 ft 109 kts 276°
2026-04-29 07:49 43.59611 -127.87007 21035 ft 108 kts 276°
2026-04-29 07:50 43.59537 -127.88042 21035 ft 109 kts 276°
2026-04-29 07:50 43.59464 -127.89078 21035 ft 109 kts 276°
2026-04-29 07:50 43.59392 -127.90103 21034 ft 109 kts 276°
2026-04-29 07:50 43.59319 -127.91140 21040 ft 109 kts 276°
2026-04-29 07:51 43.59246 -127.92177 21042 ft 108 kts 276°
2026-04-29 07:51 43.59175 -127.93214 21042 ft 108 kts 276°
2026-04-29 07:51 43.59103 -127.94252 21042 ft 109 kts 276°
2026-04-29 07:51 43.59032 -127.95289 21042 ft 109 kts 276°
2026-04-29 07:52 43.58960 -127.96327 21042 ft 109 kts 276°
2026-04-29 07:52 43.58887 -127.97366 21042 ft 109 kts 276°
2026-04-29 07:52 43.58815 -127.98390 21042 ft 109 kts 276°
2026-04-29 07:52 43.58743 -127.99429 21038 ft 108 kts 276°
2026-04-29 07:53 43.58680 -128.00457 21046 ft 108 kts 276°
2026-04-29 07:53 43.58620 -128.01489 21044 ft 108 kts 276°
2026-04-29 07:53 43.58559 -128.02521 21044 ft 108 kts 276°
2026-04-29 07:53 43.58499 -128.03553 21044 ft 108 kts 276°
2026-04-29 07:54 43.58439 -128.04584 21044 ft 108 kts 276°
2026-04-29 07:54 43.58379 -128.05617 21044 ft 108 kts 276°
2026-04-29 07:54 43.58321 -128.06639 21044 ft 108 kts 276°
2026-04-29 07:54 43.58262 -128.07673 21044 ft 108 kts 276°
2026-04-29 07:55 43.58202 -128.08709 21044 ft 108 kts 276°
2026-04-29 07:55 43.58143 -128.09744 21044 ft 108 kts 276°
2026-04-29 07:55 43.58083 -128.10783 21044 ft 108 kts 276°
2026-04-29 07:55 43.58024 -128.11819 21045 ft 108 kts 276°
2026-04-29 07:56 43.57965 -128.12853 21042 ft 108 kts 276°
2026-04-29 07:56 43.57914 -128.13870 21044 ft 108 kts 276°
2026-04-29 07:56 43.57862 -128.14902 21044 ft 108 kts 276°
2026-04-29 07:56 43.57811 -128.15935 21044 ft 108 kts 276°
2026-04-29 07:57 43.57760 -128.16967 21044 ft 108 kts 276°
2026-04-29 07:57 43.57709 -128.18001 21044 ft 108 kts 276°
2026-04-29 07:57 43.57658 -128.19035 21044 ft 108 kts 276°
2026-04-29 07:57 43.57606 -128.20069 21045 ft 108 kts 276°
2026-04-29 07:58 43.57555 -128.21101 21043 ft 108 kts 276°
2026-04-29 07:58 43.57504 -128.22135 21044 ft 108 kts 276°
2026-04-29 07:58 43.57470 -128.22821 21043 ft 108 kts 276°
2026-04-29 07:58 43.57420 -128.23853 21043 ft 108 kts 276°
2026-04-29 07:59 43.57370 -128.24889 21046 ft 108 kts 276°
2026-04-29 07:59 43.57320 -128.25921 21046 ft 108 kts 276°
2026-04-29 07:59 43.57269 -128.26957 21046 ft 108 kts 276°
2026-04-29 07:59 43.57218 -128.27994 21046 ft 108 kts 276°
2026-04-29 08:00 43.57168 -128.29028 21046 ft 108 kts 275°
2026-04-29 08:00 43.57117 -128.30057 21049 ft 107 kts 276°
2026-04-29 08:00 43.57065 -128.31085 21048 ft 107 kts 276°
2026-04-29 08:00 43.57014 -128.32114 21048 ft 107 kts 276°
2026-04-29 08:01 43.56963 -128.33129 21049 ft 108 kts 276°
2026-04-29 08:01 43.56912 -128.34158 21049 ft 108 kts 276°
2026-04-29 08:01 43.56862 -128.35189 21049 ft 108 kts 276°
2026-04-29 08:01 43.56811 -128.36220 21049 ft 108 kts 276°
2026-04-29 08:02 43.56761 -128.37252 21049 ft 108 kts 276°
2026-04-29 08:02 43.56712 -128.38283 21049 ft 108 kts 276°
2026-04-29 08:02 43.56663 -128.39315 21051 ft 108 kts 276°
2026-04-29 08:02 43.56613 -128.40346 21051 ft 108 kts 276°
2026-04-29 08:03 43.56564 -128.41376 21051 ft 108 kts 276°
2026-04-29 08:03 43.56517 -128.42408 21049 ft 107 kts 276°
2026-04-29 08:03 43.56483 -128.43432 21051 ft 107 kts 276°
2026-04-29 08:03 43.56449 -128.44461 21051 ft 107 kts 276°
2026-04-29 08:04 43.56415 -128.45492 21053 ft 108 kts 276°
2026-04-29 08:04 43.56380 -128.46527 21054 ft 108 kts 276°
2026-04-29 08:04 43.56345 -128.47561 21053 ft 108 kts 276°
2026-04-29 08:04 43.56310 -128.48595 21053 ft 108 kts 276°
2026-04-29 08:05 43.56275 -128.49629 21053 ft 108 kts 276°
2026-04-29 08:05 43.56241 -128.50665 21053 ft 108 kts 276°
2026-04-29 08:05 43.56208 -128.51688 21053 ft 108 kts 276°
2026-04-29 08:05 43.56174 -128.52725 21053 ft 108 kts 276°
2026-04-29 08:06 43.56140 -128.53762 21051 ft 108 kts 276°
2026-04-29 08:06 43.56107 -128.54800 21051 ft 108 kts 276°
2026-04-29 08:06 43.56074 -128.55837 21051 ft 108 kts 276°
2026-04-29 08:06 43.56041 -128.56874 21050 ft 108 kts 276°
2026-04-29 08:07 43.56007 -128.57913 21051 ft 108 kts 276°
2026-04-29 08:07 43.55976 -128.58936 21051 ft 108 kts 276°
2026-04-29 08:07 43.55944 -128.59972 21054 ft 108 kts 276°
2026-04-29 08:07 43.55912 -128.61008 21054 ft 108 kts 276°
2026-04-29 08:08 43.55880 -128.62044 21055 ft 108 kts 276°
2026-04-29 08:08 43.55847 -128.63082 21055 ft 108 kts 276°
2026-04-29 08:08 43.55814 -128.64120 21055 ft 108 kts 276°
2026-04-29 08:08 43.55781 -128.65155 21060 ft 108 kts 276°
2026-04-29 08:09 43.55748 -128.66192 21060 ft 108 kts 276°
2026-04-29 08:09 43.55716 -128.67227 21060 ft 108 kts 276°
2026-04-29 08:09 43.55684 -128.68263 21060 ft 108 kts 276°
2026-04-29 08:09 43.55651 -128.69297 21060 ft 108 kts 276°
2026-04-29 08:10 43.55619 -128.70331 21060 ft 108 kts 276°
2026-04-29 08:10 43.55587 -128.71367 21060 ft 108 kts 276°
2026-04-29 08:10 43.55556 -128.72389 21060 ft 108 kts 276°
2026-04-29 08:10 43.55524 -128.73425 21060 ft 108 kts 276°
2026-04-29 08:11 43.55491 -128.74461 21059 ft 108 kts 276°
2026-04-29 08:11 43.55458 -128.75494 21059 ft 108 kts 276°
2026-04-29 08:11 43.55425 -128.76529 21059 ft 108 kts 276°
2026-04-29 08:11 43.55393 -128.77562 21058 ft 108 kts 275°
2026-04-29 08:12 43.55370 -128.78598 21060 ft 108 kts 276°
2026-04-29 08:12 43.55350 -128.79628 21060 ft 108 kts 276°
2026-04-29 08:12 43.55330 -128.80658 21060 ft 107 kts 276°
2026-04-29 08:12 43.55310 -128.81690 21060 ft 108 kts 276°
2026-04-29 08:13 43.55290 -128.82721 21057 ft 107 kts 276°
2026-04-29 08:13 43.55270 -128.83750 21057 ft 107 kts 276°
2026-04-29 08:13 43.55251 -128.84781 21057 ft 107 kts 276°
2026-04-29 08:13 43.55232 -128.85810 21057 ft 107 kts 276°
2026-04-29 08:14 43.55213 -128.86825 21059 ft 107 kts 276°
2026-04-29 08:14 43.55193 -128.87865 21059 ft 107 kts 276°
2026-04-29 08:14 43.55174 -128.88878 21059 ft 107 kts 276°
2026-04-29 08:14 43.55154 -128.89906 21059 ft 107 kts 276°
2026-04-29 08:15 43.55135 -128.90933 21061 ft 107 kts 276°
2026-04-29 08:15 43.55116 -128.91962 21061 ft 107 kts 276°
2026-04-29 08:15 43.55097 -128.92989 21061 ft 107 kts 276°
2026-04-29 08:15 43.55079 -128.94020 21061 ft 107 kts 276°
2026-04-29 08:16 43.55060 -128.95047 21062 ft 107 kts 276°
2026-04-29 08:16 43.55042 -128.96076 21065 ft 107 kts 276°
2026-04-29 08:16 43.55023 -128.97104 21065 ft 107 kts 276°
2026-04-29 08:16 43.55005 -128.98131 21064 ft 107 kts 276°
2026-04-29 08:17 43.54986 -128.99157 21062 ft 107 kts 276°
2026-04-29 08:17 43.54968 -129.00169 21062 ft 107 kts 276°
2026-04-29 08:17 43.54950 -129.01193 21061 ft 107 kts 276°
2026-04-29 08:17 43.54932 -129.02218 21062 ft 107 kts 276°
2026-04-29 08:18 43.54914 -129.03244 21064 ft 107 kts 276°
2026-04-29 08:18 43.54896 -129.04269 21064 ft 107 kts 276°
2026-04-29 08:18 43.54879 -129.05296 21064 ft 107 kts 276°
2026-04-29 08:18 43.54861 -129.06322 21064 ft 107 kts 276°
2026-04-29 08:19 43.54844 -129.07349 21064 ft 107 kts 276°
2026-04-29 08:19 43.54827 -129.08373 21064 ft 107 kts 276°
2026-04-29 08:19 43.54810 -129.09399 21064 ft 107 kts 276°
2026-04-29 08:19 43.54793 -129.10426 21064 ft 107 kts 276°
2026-04-29 08:20 43.54776 -129.11439 21062 ft 107 kts 276°
2026-04-29 08:20 43.54758 -129.12465 21062 ft 107 kts 276°
2026-04-29 08:20 43.54740 -129.13492 21062 ft 107 kts 276°
2026-04-29 08:20 43.54723 -129.14518 21065 ft 107 kts 276°
2026-04-29 08:21 43.54706 -129.15545 21067 ft 107 kts 276°
2026-04-29 08:21 43.54688 -129.16573 21067 ft 107 kts 276°
2026-04-29 08:21 43.54670 -129.17601 21067 ft 107 kts 276°
2026-04-29 08:21 43.54652 -129.18629 21069 ft 107 kts 276°
2026-04-29 08:22 43.54635 -129.19654 21069 ft 107 kts 276°
2026-04-29 08:22 43.54619 -129.20680 21069 ft 107 kts 276°
2026-04-29 08:22 43.54602 -129.21705 21069 ft 107 kts 276°
2026-04-29 08:22 43.54586 -129.22731 21069 ft 107 kts 276°
2026-04-29 08:23 43.54570 -129.23758 21068 ft 107 kts 276°
2026-04-29 08:23 43.54554 -129.24786 21068 ft 107 kts 276°
2026-04-29 08:23 43.54538 -129.25813 21067 ft 107 kts 276°
2026-04-29 08:23 43.54522 -129.26839 21067 ft 107 kts 276°
2026-04-29 08:24 43.54506 -129.27866 21070 ft 107 kts 276°
2026-04-29 08:24 43.54490 -129.28893 21070 ft 107 kts 276°
2026-04-29 08:24 43.54474 -129.29919 21069 ft 107 kts 276°
2026-04-29 08:24 43.54460 -129.30931 21068 ft 107 kts 276°
2026-04-29 08:25 43.54454 -129.31950 21065 ft 106 kts 276°
2026-04-29 08:25 43.54453 -129.32965 21074 ft 106 kts 276°
2026-04-29 08:25 43.54452 -129.33979 21074 ft 106 kts 276°
2026-04-29 08:25 43.54451 -129.34997 21074 ft 106 kts 276°
2026-04-29 08:26 43.54450 -129.36018 21076 ft 106 kts 276°
2026-04-29 08:26 43.54449 -129.37038 21076 ft 106 kts 276°
2026-04-29 08:26 43.54455 -129.38057 21077 ft 106 kts 276°
2026-04-29 08:26 43.54470 -129.39072 21076 ft 106 kts 276°
2026-04-29 08:27 43.54486 -129.40088 21076 ft 106 kts 276°
2026-04-29 08:27 43.54502 -129.41102 21076 ft 106 kts 276°
2026-04-29 08:27 43.54517 -129.42114 21076 ft 106 kts 276°
2026-04-29 08:27 43.54533 -129.43128 21076 ft 106 kts 276°
2026-04-29 08:28 43.54549 -129.44124 21076 ft 105 kts 276°
2026-04-29 08:28 43.54565 -129.45131 21077 ft 105 kts 276°
2026-04-29 08:28 43.54582 -129.46147 21076 ft 105 kts 276°
2026-04-29 08:28 43.54597 -129.47158 21075 ft 105 kts 276°
2026-04-29 08:29 43.54613 -129.48170 21078 ft 106 kts 276°
2026-04-29 08:29 43.54628 -129.49181 21078 ft 105 kts 276°
2026-04-29 08:29 43.54644 -129.50192 21078 ft 105 kts 276°
2026-04-29 08:29 43.54660 -129.51203 21078 ft 105 kts 276°
2026-04-29 08:30 43.54675 -129.52214 21074 ft 105 kts 276°
2026-04-29 08:30 43.54704 -129.54234 21074 ft 105 kts 276°
2026-04-29 08:30 43.54719 -129.55243 21074 ft 105 kts 276°
2026-04-29 08:31 43.54734 -129.56239 21077 ft 105 kts 276°
2026-04-29 08:31 43.54750 -129.57250 21077 ft 105 kts 276°
2026-04-29 08:31 43.54767 -129.58259 21077 ft 105 kts 276°
2026-04-29 08:31 43.54783 -129.59269 21076 ft 105 kts 276°
2026-04-29 08:32 43.54799 -129.60277 21080 ft 105 kts 276°
2026-04-29 08:32 43.54814 -129.61280 21079 ft 105 kts 276°
2026-04-29 08:32 43.54831 -129.62294 21079 ft 105 kts 276°
2026-04-29 08:32 43.54847 -129.63303 21079 ft 105 kts 276°
2026-04-29 08:33 43.54863 -129.64313 21082 ft 105 kts 276°
2026-04-29 08:33 43.54880 -129.65325 21082 ft 105 kts 276°
2026-04-29 08:33 43.54897 -129.66333 21085 ft 105 kts 276°
2026-04-29 08:33 43.54931 -129.67314 21093 ft 104 kts 276°
2026-04-29 08:34 43.54944 -129.68248 21099 ft 90 kts 276°
2026-04-29 08:34 43.54950 -129.69061 21076 ft 80 kts 276°
2026-04-29 08:34 43.54950 -129.69799 21054 ft 74 kts 276°
2026-04-29 08:34 43.54947 -129.70486 21036 ft 70 kts 276°
2026-04-29 08:35 43.54940 -129.71133 21022 ft 66 kts 276°
2026-04-29 08:35 43.54930 -129.71763 20975 ft 69 kts 276°
2026-04-29 08:35 43.54923 -129.72438 20982 ft 72 kts 276°
2026-04-29 08:35 43.54931 -129.73094 20909 ft 60 kts 253°
2026-04-29 08:36 43.54627 -129.73675 19791 ft 99 kts 298°
2026-04-29 08:36 43.55012 -129.74353 19811 ft 74 kts 301°
2026-04-29 08:36 43.55096 -129.74923 19454 ft 83 kts 208°
2026-04-29 08:36 43.54962 -129.74610 18335 ft 109 kts 274°
2026-04-29 08:37 43.55013 -129.75400 17808 ft 47 kts 295°
2026-04-29 08:37 43.54958 -129.75704 15922 ft 74 kts 178°
2026-04-29 08:37 43.55124 -129.75496 13393 ft 76 kts 345°
2026-04-29 08:37 43.54849 -129.75719 13502 ft 103 kts 171°
2026-04-29 08:38 43.54233 -129.75511 13772 ft 81 kts 162°
2026-04-29 08:38 43.53602 -129.75495 12764 ft 136 kts 208°
2026-04-29 08:38 43.52984 -129.75886 12998 ft 99 kts 207°
2026-04-29 08:38 43.52358 -129.76226 12749 ft 95 kts 206°
2026-04-29 08:39 43.51568 -129.76796 12017 ft 124 kts 212°
2026-04-29 08:39 43.50847 -129.77354 11791 ft 116 kts 210°
2026-04-29 08:39 43.50185 -129.77902 11591 ft 110 kts 212°
2026-04-29 08:39 43.49548 -129.78430 11445 ft 103 kts 211°
2026-04-29 08:40 43.48975 -129.78966 11255 ft 99 kts 216°
2026-04-29 08:40 43.48414 -129.79606 10928 ft 109 kts 221°
2026-04-29 08:40 43.47831 -129.80269 10759 ft 103 kts 218°
2026-04-29 08:40 43.47279 -129.80898 10579 ft 101 kts 221°
2026-04-29 08:41 43.46723 -129.81634 10171 ft 121 kts 226°
2026-04-29 08:41 43.46185 -129.82413 10057 ft 104 kts 225°
2026-04-29 08:41 43.45676 -129.83093 9915 ft 95 kts 217°
2026-04-29 08:41 43.45167 -129.83613 9675 ft 87 kts 213°
2026-04-29 08:42 43.44898 -129.84203 6549 ft 199 kts 249°
2026-04-29 08:42 43.44444 -129.85531 6766 ft 125 kts 245°
2026-04-29 08:42 43.44089 -129.86558 6424 ft 113 kts 265°
2026-04-29 08:42 43.43935 -129.87237 4262 ft 41 kts 277°
2026-04-29 08:43 43.43795 -129.88560 2821 ft 135 kts 269°
2026-04-29 08:43 43.43622 -129.89677 2501 ft 115 kts 261°
2026-04-29 08:43 43.43414 -129.90707 2124 ft 106 kts 267°
2026-04-29 08:43 43.43249 -129.91762 1423 ft 122 kts 261°
2026-04-29 08:44 43.42931 -129.92732 1174 ft 101 kts 252°
2026-04-29 08:44 43.42609 -129.93571 937 ft 96 kts 248°
2026-04-29 08:44 43.42345 -129.94261 838 ft 72 kts 249°
2026-04-29 08:44 43.42093 -129.94846 631 ft 72 kts 246°
2026-04-29 08:45 43.41830 -129.95394 459 ft 65 kts 239°
2026-04-29 08:45 43.41533 -129.95882 247 ft 68 kts 236°
2026-04-29 08:45 43.41201 -129.96357 40 ft 67 kts 234°
2026-04-29 08:45 43.41021 -129.96650 1 ft 5 kts 251°
2026-04-29 08:46 43.41015 -129.96696 1 ft 5 kts 271°
2026-04-29 08:46 43.41022 -129.96742 1 ft 8 kts 289°
2026-04-29 08:46 43.41033 -129.96776 1 ft 7 kts 298°